createdAt,value
2022-12-23T00:00:28.791Z,99766.53
2022-12-23T00:02:55.884Z,99831.16
2022-12-23T00:05:22.955Z,99839.34
2022-12-23T00:07:49.683Z,99818.56
2022-12-23T00:10:16.514Z,99773.81
2022-12-23T00:13:01.685Z,99818.06
2022-12-23T00:15:28.602Z,99812.22
2022-12-23T00:17:55.465Z,99815.06
2022-12-23T00:20:22.536Z,99824.78
2022-12-23T00:23:07.808Z,99808.97
2022-12-23T00:25:41.051Z,99760.69
2022-12-23T00:28:14.668Z,99819.22
2022-12-23T00:30:52.429Z,99779.13
2022-12-23T00:33:22.659Z,99772.66
2022-12-23T00:35:50.576Z,99785.16
2022-12-23T00:38:38.221Z,99803.63
2022-12-23T00:41:34.838Z,99830.13
2022-12-23T00:44:02.927Z,99841.06
2022-12-23T00:46:29.811Z,99820.84
2022-12-23T00:49:15.443Z,99825.72
2022-12-23T00:51:42.185Z,99832.53
2022-12-23T00:54:08.943Z,99814.31
2022-12-23T00:56:35.772Z,99816.72
2022-12-23T00:59:02.531Z,99825.25
2022-12-23T01:01:48.119Z,99815.13
2022-12-23T01:04:35.000Z,99796.84
2022-12-23T01:07:02.479Z,99842.53
2022-12-23T01:09:29.706Z,99850.47
2022-12-23T01:11:56.427Z,99844.19
2022-12-23T01:14:23.405Z,99849.03
2022-12-23T01:16:50.209Z,99833.84
2022-12-23T01:19:17.112Z,99840.13
2022-12-23T01:21:43.928Z,99860.91
2022-12-23T01:24:10.618Z,99851.03
2022-12-23T01:26:37.427Z,99844.53
2022-12-23T01:29:04.313Z,99803.97
2022-12-23T01:31:31.183Z,99794.09
2022-12-23T01:33:57.944Z,99785.16
2022-12-23T01:36:24.992Z,99801.63
2022-12-23T01:38:52.014Z,99813.47
2022-12-23T01:41:55.540Z,99874.19
2022-12-23T01:44:50.101Z,99883.78
2022-12-23T01:47:25.848Z,99864.63
2022-12-23T01:50:00.004Z,99888.84
2022-12-23T01:52:27.464Z,99879.75
2022-12-23T01:54:55.504Z,99884.63
2022-12-23T01:57:22.798Z,99892.16
2022-12-23T02:00:08.636Z,99882.72
2022-12-23T02:02:55.698Z,99847.09
2022-12-23T02:05:23.902Z,99857.91
2022-12-23T02:08:11.248Z,99898.19
2022-12-23T02:11:16.655Z,99900.00
2022-12-23T02:14:49.147Z,99903.72
2022-12-23T02:17:30.096Z,99896.78
2022-12-23T02:20:44.818Z,99911.34
2022-12-23T02:23:33.273Z,99913.34
2022-12-23T02:26:14.954Z,99918.59
2022-12-23T02:29:19.475Z,99900.75
2022-12-23T02:31:49.098Z,99916.78
2022-12-23T02:34:51.134Z,99902.38
2022-12-23T02:37:41.614Z,99894.88
2022-12-23T02:40:14.943Z,99905.97
2022-12-23T02:42:54.074Z,99891.41
2022-12-23T02:45:33.381Z,99915.97
2022-12-23T02:48:07.805Z,99916.22
2022-12-23T02:50:38.513Z,99925.97
2022-12-23T02:53:21.963Z,99890.50
2022-12-23T02:55:52.169Z,99862.59
2022-12-23T02:58:26.531Z,99865.56
2022-12-23T03:00:54.616Z,99887.53
2022-12-23T03:03:22.460Z,99950.09
2022-12-23T03:05:51.387Z,99855.56
2022-12-23T03:08:29.581Z,99888.16
2022-12-23T03:11:06.356Z,99952.81
2022-12-23T03:13:57.354Z,99953.25
2022-12-23T03:16:46.716Z,99952.81
2022-12-23T03:19:32.841Z,99957.47
2022-12-23T03:22:06.140Z,99966.47
2022-12-23T03:24:44.711Z,99952.25
2022-12-23T03:27:37.386Z,99940.38
2022-12-23T03:30:08.627Z,99918.84
2022-12-23T03:32:46.431Z,99963.34
2022-12-23T03:35:20.445Z,99956.31
2022-12-23T03:37:50.647Z,99974.97
2022-12-23T03:40:23.999Z,99970.09
2022-12-23T03:42:59.004Z,99993.88
2022-12-23T03:45:40.352Z,99979.53
2022-12-23T03:48:24.079Z,99991.06
2022-12-23T03:50:56.335Z,99998.09
2022-12-23T03:53:49.423Z,100006.38
2022-12-23T03:56:40.595Z,100003.22
2022-12-23T03:59:27.194Z,99955.50
2022-12-23T04:01:56.745Z,100011.81
2022-12-23T04:04:29.683Z,100004.84
2022-12-23T04:07:16.136Z,100006.31
2022-12-23T04:09:43.598Z,100007.94
2022-12-23T04:12:10.711Z,100002.44
2022-12-23T04:14:38.569Z,99992.22
2022-12-23T04:17:05.435Z,99980.25
2022-12-23T04:19:33.512Z,100023.94
2022-12-23T04:22:00.425Z,99997.13
2022-12-23T04:24:27.187Z,99911.94
2022-12-23T04:26:53.930Z,100033.31
2022-12-23T04:29:20.883Z,100008.19
2022-12-23T04:31:47.606Z,99994.13
2022-12-23T04:34:14.495Z,100034.69
2022-12-23T04:36:41.235Z,100021.97
2022-12-23T04:39:07.934Z,99964.00
2022-12-23T04:41:34.789Z,100002.88
2022-12-23T04:44:01.688Z,99940.50
2022-12-23T04:46:28.335Z,100025.56
2022-12-23T04:48:55.154Z,100024.91
2022-12-23T04:51:22.099Z,100042.66
2022-12-23T04:53:48.919Z,100012.59
2022-12-23T04:56:15.605Z,100024.31
2022-12-23T04:58:42.606Z,99986.81
2022-12-23T05:01:11.011Z,100006.34
2022-12-23T05:03:38.585Z,100009.59
2022-12-23T05:06:06.233Z,99974.88
2022-12-23T05:08:33.278Z,100041.81
2022-12-23T05:11:00.047Z,100059.22
2022-12-23T05:13:26.865Z,100054.81
2022-12-23T05:15:55.106Z,100031.81
2022-12-23T05:18:22.905Z,100077.81
2022-12-23T05:20:50.407Z,100016.75
2022-12-23T05:23:17.454Z,99996.19
2022-12-23T05:25:44.344Z,100056.06
2022-12-23T05:28:11.329Z,100008.69
2022-12-23T05:30:38.144Z,100069.25
2022-12-23T05:33:05.048Z,100085.03
2022-12-23T05:35:31.852Z,100035.81
2022-12-23T05:37:58.545Z,100058.53
2022-12-23T05:40:28.750Z,100076.28
2022-12-23T05:42:57.920Z,100071.72
2022-12-23T05:45:24.647Z,100058.53
2022-12-23T05:47:51.304Z,100070.59
2022-12-23T05:50:18.873Z,100064.09
2022-12-23T05:52:45.789Z,100061.84
2022-12-23T05:55:12.696Z,99985.38
2022-12-23T05:57:39.467Z,100030.19
2022-12-23T06:00:06.882Z,100064.00
2022-12-23T06:02:33.757Z,100041.63
2022-12-23T06:05:00.662Z,100055.75
2022-12-23T06:07:27.330Z,100065.50
2022-12-23T06:09:53.979Z,100097.06
2022-12-23T06:12:21.061Z,100027.06
2022-12-23T06:14:47.966Z,100061.38
2022-12-23T06:17:14.832Z,100034.59
2022-12-23T06:19:41.711Z,100066.28
2022-12-23T06:22:08.562Z,100044.25
2022-12-23T06:24:35.551Z,100049.47
2022-12-23T06:27:02.849Z,100051.19
2022-12-23T06:29:29.915Z,100127.94
2022-12-23T06:31:56.845Z,100018.47
2022-12-23T06:34:23.991Z,100068.63
2022-12-23T06:36:50.844Z,100063.97
2022-12-23T06:39:17.687Z,100056.03
2022-12-23T06:41:44.883Z,100046.44
2022-12-23T06:44:11.867Z,100046.63
2022-12-23T06:46:38.644Z,100075.59
2022-12-23T06:49:12.618Z,100090.69
2022-12-23T06:51:43.455Z,100133.94
2022-12-23T06:54:12.182Z,100038.06
2022-12-23T06:56:39.838Z,100073.47
2022-12-23T06:59:06.660Z,100050.88
2022-12-23T07:01:34.093Z,100089.53
2022-12-23T07:04:02.041Z,100099.81
2022-12-23T07:06:29.221Z,100111.00
2022-12-23T07:08:56.034Z,100137.03
2022-12-23T07:11:22.925Z,100048.50
2022-12-23T07:13:49.803Z,100103.25
2022-12-23T07:16:16.602Z,100142.44
2022-12-23T07:18:43.526Z,100155.94
2022-12-23T07:21:18.819Z,100156.25
2022-12-23T07:23:48.205Z,100136.59
2022-12-23T07:26:14.994Z,100139.38
2022-12-23T07:28:44.193Z,100150.31
2022-12-23T07:31:10.972Z,100149.16
2022-12-23T07:33:37.643Z,100142.53
2022-12-23T07:36:04.607Z,100108.22
2022-12-23T07:38:31.562Z,100161.75
2022-12-23T07:40:58.333Z,100152.00
2022-12-23T07:43:25.407Z,100076.09
2022-12-23T07:45:59.223Z,100152.50
2022-12-23T07:48:27.143Z,100149.91
2022-12-23T07:50:54.398Z,100143.78
2022-12-23T07:53:21.435Z,100098.41
2022-12-23T07:55:54.596Z,100124.06
2022-12-23T07:58:23.665Z,100140.50
2022-12-23T08:00:50.569Z,100084.03
2022-12-23T08:03:17.588Z,100139.34
2022-12-23T08:05:44.584Z,100162.75
2022-12-23T08:08:11.333Z,100190.09
2022-12-23T08:10:41.488Z,100181.47
2022-12-23T08:13:11.697Z,100197.09
2022-12-23T08:15:38.999Z,100190.09
2022-12-23T08:18:07.206Z,100080.47
2022-12-23T08:20:34.191Z,100136.56
2022-12-23T08:23:00.951Z,100142.41
2022-12-23T08:25:27.846Z,100129.88
2022-12-23T08:27:54.747Z,100185.00
2022-12-23T08:30:21.765Z,100192.81
2022-12-23T08:32:48.879Z,100210.25
2022-12-23T08:35:17.204Z,100070.22
2022-12-23T08:37:44.116Z,100127.31
2022-12-23T08:40:12.206Z,100076.22
2022-12-23T08:42:39.356Z,100190.06
2022-12-23T08:45:06.522Z,100150.69
2022-12-23T08:47:33.409Z,100152.81
2022-12-23T08:50:00.224Z,100151.66
2022-12-23T08:52:27.980Z,100124.34
2022-12-23T08:54:54.798Z,100181.56
2022-12-23T08:57:23.307Z,100188.91
2022-12-23T08:59:51.877Z,100199.13
2022-12-23T09:02:18.665Z,100190.50
2022-12-23T09:04:45.705Z,100188.19
2022-12-23T09:07:12.515Z,100170.47
2022-12-23T09:09:40.855Z,100154.84
2022-12-23T09:12:07.970Z,100168.69
2022-12-23T09:14:36.927Z,100200.91
2022-12-23T09:17:03.941Z,100169.50
2022-12-23T09:19:31.121Z,100162.84
2022-12-23T09:21:58.013Z,100160.28
2022-12-23T09:24:24.917Z,100147.78
2022-12-23T09:26:51.832Z,100217.00
2022-12-23T09:29:18.676Z,100137.16
2022-12-23T09:31:45.575Z,100146.75
2022-12-23T09:34:14.132Z,100166.75
2022-12-23T09:36:40.952Z,100203.81
2022-12-23T09:39:07.675Z,100157.47
2022-12-23T09:41:42.953Z,100192.38
2022-12-23T09:44:35.424Z,100187.97
2022-12-23T09:47:09.756Z,100182.47
2022-12-23T09:49:44.434Z,100173.00
2022-12-23T09:52:16.715Z,100163.81
2022-12-23T09:54:48.493Z,100174.44
2022-12-23T09:57:42.169Z,100174.09
2022-12-23T10:00:15.325Z,100176.53
2022-12-23T10:03:14.681Z,100173.56
2022-12-23T10:05:53.840Z,100179.09
2022-12-23T10:08:40.018Z,100177.63
2022-12-23T10:11:40.055Z,100175.19
2022-12-23T10:14:25.239Z,100160.88
2022-12-23T10:17:07.364Z,100161.63
2022-12-23T10:19:42.485Z,100168.13
2022-12-23T10:22:25.457Z,100156.59
2022-12-23T10:24:55.642Z,100154.47
2022-12-23T10:27:34.890Z,100146.78
2022-12-23T10:33:24.473Z,100143.31
2022-12-23T10:36:12.552Z,100154.41
2022-12-23T10:38:45.133Z,100150.97
2022-12-23T10:41:25.069Z,100150.69
2022-12-23T10:44:29.320Z,100152.78
2022-12-23T10:47:14.684Z,100145.13
2022-12-23T10:50:01.740Z,100144.50
2022-12-23T10:52:33.094Z,100133.13
2022-12-23T10:54:59.786Z,100127.91
2022-12-23T10:57:26.597Z,100139.44
2022-12-23T10:59:53.633Z,100126.38
2022-12-23T11:02:40.686Z,100123.91
2022-12-23T11:05:17.735Z,100103.56
2022-12-23T11:07:46.771Z,100107.72
2022-12-23T11:10:18.456Z,100095.34
2022-12-23T11:12:52.183Z,100087.00
2022-12-23T11:15:27.436Z,100094.97
2022-12-23T11:18:21.403Z,100078.50
2022-12-23T11:21:05.804Z,100072.81
2022-12-23T11:23:36.687Z,100087.13
2022-12-23T11:26:08.010Z,100088.94
2022-12-23T11:28:46.943Z,100082.09
2022-12-23T11:31:16.383Z,100062.59
2022-12-23T11:33:48.144Z,100069.84
2022-12-23T11:36:24.053Z,100066.44
2022-12-23T11:39:09.215Z,100062.84
2022-12-23T11:41:45.419Z,100058.75
2022-12-23T11:44:18.940Z,100047.16
2022-12-23T11:46:46.937Z,100051.41
2022-12-23T11:49:28.166Z,100029.97
2022-12-23T11:52:17.281Z,100025.78
2022-12-23T11:54:54.598Z,100027.00
2022-12-23T11:57:44.289Z,100037.25
2022-12-23T12:00:21.591Z,100029.75
2022-12-23T12:02:54.931Z,100017.97
2022-12-23T12:05:46.785Z,100023.84
2022-12-23T12:08:21.533Z,100013.03
2022-12-23T12:10:52.669Z,100011.13
2022-12-23T12:13:27.944Z,100014.75
2022-12-23T12:16:22.616Z,100017.97
2022-12-23T12:18:55.466Z,100006.38
2022-12-23T12:21:28.460Z,99997.47
2022-12-23T12:24:20.240Z,99997.53
2022-12-23T12:26:52.619Z,99994.13
2022-12-23T12:29:45.610Z,99984.03
2022-12-23T12:32:22.075Z,99991.38
2022-12-23T12:35:13.173Z,99990.56
2022-12-23T12:37:53.736Z,99982.91
2022-12-23T12:40:25.043Z,99985.34
2022-12-23T12:43:23.549Z,99970.47
2022-12-23T12:46:03.625Z,99963.66
2022-12-23T12:48:51.668Z,99956.63
2022-12-23T12:51:38.312Z,99954.38
2022-12-23T12:54:14.440Z,99933.56
2022-12-23T12:56:49.478Z,99935.00
2022-12-23T12:59:28.131Z,99930.13
2022-12-23T13:02:20.118Z,99931.59
2022-12-23T13:05:06.321Z,99925.13
2022-12-23T13:08:30.720Z,99917.63
2022-12-23T13:11:28.564Z,99882.44
2022-12-23T13:14:07.936Z,99916.38
2022-12-23T13:16:37.472Z,99904.13
2022-12-23T13:19:04.078Z,99908.53
2022-12-23T13:21:47.248Z,99887.38
2022-12-23T13:24:57.670Z,99896.69
2022-12-23T13:27:34.265Z,99864.53
2022-12-23T13:30:14.318Z,99868.41
2022-12-23T13:33:08.592Z,99886.94
2022-12-23T13:36:08.734Z,99876.84
2022-12-23T13:39:13.081Z,99878.03
2022-12-23T13:41:46.797Z,99866.94
2022-12-23T13:44:15.312Z,99790.66
2022-12-23T13:47:00.883Z,99851.03
2022-12-23T13:49:58.693Z,99851.41
2022-12-23T13:52:39.052Z,99852.56
2022-12-23T13:55:47.133Z,99849.28
2022-12-23T13:58:18.772Z,99838.13
2022-12-23T14:00:45.834Z,99843.66
2022-12-23T14:03:25.152Z,99829.50
2022-12-23T14:05:53.965Z,99791.44
2022-12-23T14:08:33.249Z,99839.59
2022-12-23T14:11:20.151Z,99812.78
2022-12-23T14:14:04.040Z,99788.03
2022-12-23T14:16:55.850Z,99748.63
2022-12-23T14:23:23.030Z,99774.28
2022-12-23T14:26:20.812Z,99793.38
2022-12-23T14:29:26.981Z,99775.75
2022-12-23T14:31:58.603Z,99777.97
2022-12-23T14:34:30.362Z,99785.44
2022-12-23T14:37:26.096Z,99787.06
2022-12-23T14:39:53.488Z,99778.44
2022-12-23T14:43:27.934Z,99788.69
2022-12-23T14:45:54.761Z,99785.09
2022-12-23T14:48:33.587Z,99777.63
2022-12-23T14:51:09.607Z,99771.59
2022-12-23T14:53:57.128Z,99744.06
2022-12-23T14:56:23.822Z,99779.63
2022-12-23T14:58:59.750Z,99775.34
2022-12-23T15:01:49.766Z,99772.13
2022-12-23T15:04:22.113Z,99753.16
2022-12-23T15:06:53.682Z,99749.41
2022-12-23T15:09:30.281Z,99744.81
2022-12-23T15:12:00.508Z,99740.13
2022-12-23T15:14:34.464Z,99745.97
2022-12-23T15:17:26.014Z,99743.81
2022-12-23T15:19:54.361Z,99734.81
2022-12-23T15:22:26.823Z,99746.69
2022-12-23T15:24:58.812Z,99749.75
2022-12-23T15:27:29.609Z,99753.34
2022-12-23T15:29:57.961Z,99752.50
2022-12-23T15:32:26.767Z,99749.28
2022-12-23T15:35:01.114Z,99752.16
2022-12-23T15:37:32.166Z,99746.94
2022-12-23T15:40:09.656Z,99730.59
2022-12-23T15:42:38.722Z,99729.59
2022-12-23T15:45:41.076Z,99722.56
2022-12-23T15:48:25.159Z,99724.84
2022-12-23T15:50:54.883Z,99706.13
2022-12-23T15:53:21.779Z,99706.31
2022-12-23T15:55:49.825Z,99706.78
2022-12-23T15:58:20.009Z,99689.63
2022-12-23T16:00:57.572Z,99696.44
2022-12-23T16:03:29.905Z,99692.84
2022-12-23T16:06:26.367Z,99688.63
2022-12-23T16:08:59.222Z,99680.81
2022-12-23T16:11:57.373Z,99672.63
2022-12-23T16:14:35.804Z,99660.31
2022-12-23T16:17:14.589Z,99667.78
2022-12-23T16:19:52.294Z,99665.78
2022-12-23T16:22:27.399Z,99665.44
2022-12-23T16:25:12.046Z,99662.22
2022-12-23T16:27:46.299Z,99651.50
2022-12-23T16:30:22.061Z,99663.03
2022-12-23T16:32:55.208Z,99668.84
2022-12-23T16:35:37.072Z,99667.84
2022-12-23T16:38:13.273Z,99673.50
2022-12-23T16:40:41.041Z,99679.19
2022-12-23T16:43:08.267Z,99667.34
2022-12-23T16:45:36.754Z,99662.38
2022-12-23T16:48:11.538Z,99630.66
2022-12-23T16:50:38.645Z,99661.59
2022-12-23T16:53:05.450Z,99653.75
2022-12-23T16:55:32.112Z,99654.19
2022-12-23T16:57:58.901Z,99665.25
2022-12-23T17:00:26.037Z,99653.75
2022-12-23T17:02:52.827Z,99667.50
2022-12-23T17:05:22.371Z,99682.97
2022-12-23T17:07:49.854Z,99607.75
2022-12-23T17:10:19.629Z,99610.53
2022-12-23T17:12:47.563Z,99675.34
2022-12-23T17:17:52.134Z,99603.34
2022-12-23T17:20:42.157Z,99657.63
2022-12-23T17:23:26.009Z,99656.06
2022-12-23T17:25:53.419Z,99678.91
2022-12-23T17:28:28.091Z,99658.16
2022-12-23T17:30:56.331Z,99631.97
2022-12-23T17:33:27.267Z,99644.94
2022-12-23T17:35:55.845Z,99612.50
2022-12-23T17:38:23.081Z,99627.94
2022-12-23T17:40:50.966Z,99594.38
2022-12-23T17:43:20.901Z,99660.03
2022-12-23T17:49:04.690Z,99548.94
2022-12-23T17:51:31.741Z,99604.72
2022-12-23T17:53:59.357Z,99665.00
2022-12-23T17:56:28.938Z,99656.72
2022-12-23T17:58:55.779Z,99656.28
2022-12-23T18:01:27.880Z,99666.41
2022-12-23T18:03:55.844Z,99666.81
2022-12-23T18:06:23.917Z,99688.97
2022-12-23T18:08:51.017Z,99605.69
2022-12-23T18:11:28.141Z,99552.78
2022-12-23T18:13:55.234Z,99590.31
2022-12-23T18:16:22.321Z,99560.25
2022-12-23T18:18:49.221Z,99653.84
2022-12-23T18:21:28.120Z,99654.47
2022-12-23T18:29:18.893Z,99659.88
2022-12-23T18:31:51.575Z,99636.50
2022-12-23T18:34:19.825Z,99622.56
2022-12-23T18:36:48.516Z,99676.50
2022-12-23T18:39:15.366Z,99667.59
2022-12-23T18:41:42.104Z,99668.50
2022-12-23T18:44:17.626Z,99690.88
2022-12-23T18:46:44.376Z,99686.00
2022-12-23T18:49:34.728Z,99671.09
2022-12-23T18:51:59.814Z,99630.31
2022-12-23T18:54:26.606Z,99677.56
2022-12-23T18:56:53.338Z,99688.06
2022-12-23T18:59:29.620Z,99672.38
2022-12-23T19:01:57.182Z,99673.97
2022-12-23T19:04:24.159Z,99682.44
2022-12-23T19:06:51.132Z,99651.16
2022-12-23T19:09:21.388Z,99680.19
2022-12-23T19:12:06.194Z,99626.00
2022-12-23T19:14:38.996Z,99659.59
2022-12-23T19:17:10.627Z,99659.69
2022-12-23T19:19:37.524Z,99618.06
2022-12-23T19:22:04.344Z,99604.53
2022-12-23T19:24:31.489Z,99640.72
2022-12-23T19:26:58.697Z,99682.69
2022-12-23T19:29:25.626Z,99669.56
2022-12-23T19:31:52.679Z,99609.91
2022-12-23T19:34:19.557Z,99654.03
2022-12-23T19:37:13.023Z,99620.50
2022-12-23T19:39:41.075Z,99708.31
2022-12-23T19:42:09.031Z,99688.19
2022-12-23T19:44:36.316Z,99641.25
2022-12-23T19:47:04.152Z,99636.22
2022-12-23T19:49:31.582Z,99719.13
2022-12-23T19:51:58.676Z,99673.59
2022-12-23T19:54:25.850Z,99730.41
2022-12-23T19:56:53.267Z,99686.94
2022-12-23T19:59:24.453Z,99664.78
2022-12-23T20:01:51.502Z,99672.34
2022-12-23T20:04:18.932Z,99680.06
2022-12-23T20:10:24.689Z,99690.16
2022-12-23T20:12:51.812Z,99694.28
2022-12-23T20:15:18.761Z,99708.22
2022-12-23T20:17:45.752Z,99695.91
2022-12-23T20:20:12.903Z,99719.09
2022-12-23T20:22:39.937Z,99712.28
2022-12-23T20:25:07.223Z,99716.75
2022-12-23T20:27:34.006Z,99740.03
2022-12-23T20:30:00.652Z,99725.75
2022-12-23T20:32:27.298Z,99742.19
2022-12-23T20:34:53.992Z,99749.91
2022-12-23T20:37:20.663Z,99748.91
2022-12-23T20:39:47.288Z,99748.25
2022-12-23T20:42:13.999Z,99772.88
2022-12-23T20:44:41.815Z,99768.00
2022-12-23T20:47:08.580Z,99725.13
2022-12-23T20:49:35.379Z,99754.69
2022-12-23T20:52:03.392Z,99749.28
2022-12-23T20:54:33.709Z,99772.31
2022-12-23T20:57:02.118Z,99774.72
2022-12-23T20:59:29.234Z,99780.81
2022-12-23T21:01:58.880Z,99794.38
2022-12-23T21:04:25.836Z,99788.09
2022-12-23T21:06:52.581Z,99786.34
2022-12-23T21:09:19.429Z,99799.97
2022-12-23T21:11:48.119Z,99806.81
2022-12-23T21:14:16.187Z,99808.50
2022-12-23T21:16:43.739Z,99782.59
2022-12-23T21:38:13.260Z,99842.22
2022-12-23T21:40:39.897Z,99793.50
2022-12-23T21:43:08.854Z,99813.97
2022-12-23T21:45:35.852Z,99834.13
2022-12-23T21:48:02.524Z,99817.69
2022-12-23T21:50:29.855Z,99838.59
2022-12-23T21:52:56.695Z,99819.81
2022-12-23T21:55:23.312Z,99825.22
2022-12-23T21:57:49.974Z,99828.66
2022-12-23T22:00:16.882Z,99818.59
2022-12-23T22:02:46.361Z,99828.91
2022-12-23T22:05:13.061Z,99833.75
2022-12-23T22:07:39.809Z,99838.59
2022-12-23T22:10:07.443Z,99845.72
2022-12-23T22:12:34.139Z,99849.75
2022-12-23T22:15:03.839Z,99857.22
2022-12-23T22:17:34.736Z,99816.09
2022-12-23T22:20:01.609Z,99863.47
2022-12-23T22:22:28.291Z,99866.56
2022-12-23T22:24:55.001Z,99875.84
2022-12-23T22:27:21.773Z,99865.00
2022-12-23T22:29:48.432Z,99866.78
2022-12-23T22:32:15.151Z,99876.88
2022-12-23T22:34:41.898Z,99868.69
2022-12-23T22:37:08.878Z,99838.00
2022-12-23T22:39:35.595Z,99872.28
2022-12-23T22:42:02.431Z,99741.94
2022-12-23T22:44:29.185Z,99871.66
2022-12-23T22:46:55.975Z,99889.41
2022-12-23T22:49:22.779Z,99862.63
2022-12-23T22:51:49.534Z,99867.94
2022-12-23T22:54:16.324Z,99903.09
2022-12-23T22:56:43.304Z,99902.13
2022-12-23T22:59:20.201Z,99880.06
2022-12-23T23:01:48.137Z,99923.28
2022-12-23T23:04:14.794Z,99902.25
2022-12-23T23:06:42.140Z,99917.41
2022-12-23T23:09:17.410Z,99928.94
2022-12-23T23:11:44.605Z,99914.19
2022-12-23T23:14:12.424Z,99887.44
2022-12-23T23:16:39.612Z,99858.66
2022-12-23T23:19:06.856Z,99924.78
2022-12-23T23:21:34.509Z,99923.31
2022-12-23T23:24:01.365Z,99926.63
2022-12-23T23:26:28.010Z,99912.81
2022-12-23T23:28:56.145Z,99929.63
2022-12-23T23:34:10.742Z,99936.00
2022-12-23T23:36:37.646Z,99915.78
2022-12-23T23:39:04.374Z,99939.56
2022-12-23T23:41:31.119Z,99950.47
2022-12-23T23:43:58.057Z,99951.16
2022-12-23T23:46:24.825Z,99965.72
2022-12-23T23:48:51.610Z,99968.19
2022-12-23T23:51:18.373Z,99969.53
2022-12-23T23:53:45.035Z,99952.47
2022-12-23T23:56:11.793Z,99953.63
2022-12-23T23:58:38.611Z,99983.16
